sensor_id;sensor_type;location;lat;lon;timestamp;pressure;altitude;pressure_sealevel;temperature;humidity
76611;BME280;65503;48.534;9.062;2023-07-31T00:01:02;97085.13;;;16.49;67.79
76611;BME280;65503;48.534;9.062;2023-07-31T00:03:29;97082.22;;;16.46;67.87
76611;BME280;65503;48.534;9.062;2023-07-31T00:05:55;97085.13;;;16.44;67.82
76611;BME280;65503;48.534;9.062;2023-07-31T00:08:22;97087.78;;;16.39;67.78
76611;BME280;65503;48.534;9.062;2023-07-31T00:10:51;97073.94;;;16.32;68.16
76611;BME280;65503;48.534;9.062;2023-07-31T00:13:19;97077.13;;;16.29;68.05
76611;BME280;65503;48.534;9.062;2023-07-31T00:15:45;97074.75;;;16.28;68.22
76611;BME280;65503;48.534;9.062;2023-07-31T00:18:13;97071.00;;;16.24;68.17
76611;BME280;65503;48.534;9.062;2023-07-31T00:20:39;97070.75;;;16.25;68.49
76611;BME280;65503;48.534;9.062;2023-07-31T00:23:06;97077.09;;;16.19;68.19
76611;BME280;65503;48.534;9.062;2023-07-31T00:25:32;97082.41;;;16.19;67.91
76611;BME280;65503;48.534;9.062;2023-07-31T00:27:59;97091.97;;;16.15;68.21
76611;BME280;65503;48.534;9.062;2023-07-31T00:30:26;97088.25;;;16.11;68.34
76611;BME280;65503;48.534;9.062;2023-07-31T00:32:53;97080.28;;;16.06;68.20
76611;BME280;65503;48.534;9.062;2023-07-31T00:35:20;97083.69;;;16.06;68.25
76611;BME280;65503;48.534;9.062;2023-07-31T00:37:46;97086.63;;;16.05;68.77
76611;BME280;65503;48.534;9.062;2023-07-31T00:40:12;97091.41;;;16.08;68.11
76611;BME280;65503;48.534;9.062;2023-07-31T00:42:40;97090.09;;;16.10;68.06
76611;BME280;65503;48.534;9.062;2023-07-31T00:45:07;97087.69;;;16.09;68.19
76611;BME280;65503;48.534;9.062;2023-07-31T00:47:34;97080.53;;;16.04;68.12
76611;BME280;65503;48.534;9.062;2023-07-31T00:50:00;97077.63;;;16.06;67.81
76611;BME280;65503;48.534;9.062;2023-07-31T00:52:27;97076.03;;;16.05;68.36
76611;BME280;65503;48.534;9.062;2023-07-31T00:54:53;97077.31;;;16.02;68.62
76611;BME280;65503;48.534;9.062;2023-07-31T00:57:20;97079.72;;;16.04;68.07
76611;BME280;65503;48.534;9.062;2023-07-31T00:59:47;97077.06;;;15.99;68.15
76611;BME280;65503;48.534;9.062;2023-07-31T01:02:13;97083.69;;;15.96;68.58
76611;BME280;65503;48.534;9.062;2023-07-31T01:04:42;97083.41;;;15.98;68.85
76611;BME280;65503;48.534;9.062;2023-07-31T01:07:42;97080.22;;;16.01;69.38
76611;BME280;65503;48.534;9.062;2023-07-31T01:10:16;97072.56;;;15.99;69.24
76611;BME280;65503;48.534;9.062;2023-07-31T01:12:44;97074.91;;;15.96;69.07
76611;BME280;65503;48.534;9.062;2023-07-31T01:15:11;97069.09;;;15.94;68.90
76611;BME280;65503;48.534;9.062;2023-07-31T01:17:39;97069.09;;;15.94;68.67
76611;BME280;65503;48.534;9.062;2023-07-31T01:20:11;97065.31;;;15.85;68.79
76611;BME280;65503;48.534;9.062;2023-07-31T01:28:28;97053.59;;;15.70;69.36
76611;BME280;65503;48.534;9.062;2023-07-31T01:30:58;97050.41;;;15.68;69.41
76611;BME280;65503;48.534;9.062;2023-07-31T01:33:27;97046.69;;;15.69;69.49
76611;BME280;65503;48.534;9.062;2023-07-31T01:35:54;97044.84;;;15.65;69.29
76611;BME280;65503;48.534;9.062;2023-07-31T01:38:22;97039.75;;;15.58;69.51
76611;BME280;65503;48.534;9.062;2023-07-31T01:40:52;97043.47;;;15.57;69.65
76611;BME280;65503;48.534;9.062;2023-07-31T01:43:20;97035.50;;;15.52;70.07
76611;BME280;65503;48.534;9.062;2023-07-31T01:45:46;97035.97;;;15.49;69.90
76611;BME280;65503;48.534;9.062;2023-07-31T01:48:13;97040.50;;;15.49;69.73
76611;BME280;65503;48.534;9.062;2023-07-31T01:50:40;97043.41;;;15.47;69.99
76611;BME280;65503;48.534;9.062;2023-07-31T01:53:06;97038.09;;;15.47;70.09
76611;BME280;65503;48.534;9.062;2023-07-31T01:55:33;97034.88;;;15.45;70.25
76611;BME280;65503;48.534;9.062;2023-07-31T01:57:59;97035.41;;;15.42;70.16
76611;BME280;65503;48.534;9.062;2023-07-31T02:00:26;97031.66;;;15.38;70.18
76611;BME280;65503;48.534;9.062;2023-07-31T02:02:52;97031.41;;;15.35;70.06
76611;BME280;65503;48.534;9.062;2023-07-31T02:05:19;97027.66;;;15.30;69.96
76611;BME280;65503;48.534;9.062;2023-07-31T02:07:45;97027.38;;;15.32;70.23
76611;BME280;65503;48.534;9.062;2023-07-31T02:10:12;97017.88;;;15.31;69.98
76611;BME280;65503;48.534;9.062;2023-07-31T02:12:38;97019.97;;;15.29;69.95
76611;BME280;65503;48.534;9.062;2023-07-31T02:15:05;97019.97;;;15.29;70.06
76611;BME280;65503;48.534;9.062;2023-07-31T02:17:32;97021.56;;;15.30;69.97
76611;BME280;65503;48.534;9.062;2023-07-31T02:19:59;97010.38;;;15.23;69.91
76611;BME280;65503;48.534;9.062;2023-07-31T02:22:25;97001.38;;;15.24;70.67
76611;BME280;65503;48.534;9.062;2023-07-31T02:24:51;96998.19;;;15.22;70.01
76611;BME280;65503;48.534;9.062;2023-07-31T02:27:18;97000.31;;;15.20;70.03
76611;BME280;65503;48.534;9.062;2023-07-31T02:29:44;96989.72;;;15.20;70.02
76611;BME280;65503;48.534;9.062;2023-07-31T02:32:11;96989.72;;;15.20;70.30
76611;BME280;65503;48.534;9.062;2023-07-31T02:34:38;96984.69;;;15.23;70.03
76611;BME280;65503;48.534;9.062;2023-07-31T02:37:05;96987.09;;;15.25;70.60
76611;BME280;65503;48.534;9.062;2023-07-31T02:39:32;96989.19;;;15.23;70.26
76611;BME280;65503;48.534;9.062;2023-07-31T02:41:59;96990.50;;;15.20;69.84
76611;BME280;65503;48.534;9.062;2023-07-31T02:44:26;96995.50;;;15.17;69.97
76611;BME280;65503;48.534;9.062;2023-07-31T02:46:53;96992.34;;;15.15;69.88
76611;BME280;65503;48.534;9.062;2023-07-31T02:49:19;96998.72;;;15.19;69.74
76611;BME280;65503;48.534;9.062;2023-07-31T02:51:46;96995.53;;;15.22;69.74
76611;BME280;65503;48.534;9.062;2023-07-31T02:54:12;96992.38;;;15.25;69.67
76611;BME280;65503;48.534;9.062;2023-07-31T02:56:39;96986.53;;;15.23;69.34
76611;BME280;65503;48.534;9.062;2023-07-31T02:59:06;96995.53;;;15.22;69.57
76611;BME280;65503;48.534;9.062;2023-07-31T03:01:32;96989.97;;;15.18;70.08
76611;BME280;65503;48.534;9.062;2023-07-31T03:03:59;96985.97;;;15.16;70.32
76611;BME280;65503;48.534;9.062;2023-07-31T03:06:26;96983.84;;;15.18;70.09
76611;BME280;65503;48.534;9.062;2023-07-31T03:08:53;96984.69;;;15.23;70.34
76611;BME280;65503;48.534;9.062;2023-07-31T03:11:20;96976.47;;;15.20;70.60
76611;BME280;65503;48.534;9.062;2023-07-31T03:13:46;96980.19;;;15.24;71.09
76611;BME280;65503;48.534;9.062;2023-07-31T03:16:13;96980.19;;;15.24;71.32
76611;BME280;65503;48.534;9.062;2023-07-31T03:18:39;96971.69;;;15.27;71.44
76611;BME280;65503;48.534;9.062;2023-07-31T03:21:06;96970.63;;;15.28;70.59
76611;BME280;65503;48.534;9.062;2023-07-31T03:23:32;96981.00;;;15.29;71.29
76611;BME280;65503;48.534;9.062;2023-07-31T03:26:05;96985.50;;;15.29;70.81
76611;BME280;65503;48.534;9.062;2023-07-31T03:28:32;96979.13;;;15.25;70.42
76611;BME280;65503;48.534;9.062;2023-07-31T03:30:58;96982.56;;;15.25;70.50
76611;BME280;65503;48.534;9.062;2023-07-31T03:33:25;96980.44;;;15.27;70.82
76611;BME280;65503;48.534;9.062;2023-07-31T03:35:52;96980.75;;;15.31;70.62
76611;BME280;65503;48.534;9.062;2023-07-31T03:38:19;96976.50;;;15.35;70.40
76611;BME280;65503;48.534;9.062;2023-07-31T03:40:46;96987.91;;;15.36;70.40
76611;BME280;65503;48.534;9.062;2023-07-31T03:43:13;96986.59;;;15.38;70.14
76611;BME280;65503;48.534;9.062;2023-07-31T03:45:39;96981.28;;;15.38;70.12
76611;BME280;65503;48.534;9.062;2023-07-31T03:48:06;96983.41;;;15.36;70.09
76611;BME280;65503;48.534;9.062;2023-07-31T03:50:34;96990.31;;;15.37;70.15
76611;BME280;65503;48.534;9.062;2023-07-31T03:53:00;96993.72;;;15.32;70.12
76611;BME280;65503;48.534;9.062;2023-07-31T03:55:27;96998.22;;;15.32;70.21
76611;BME280;65503;48.534;9.062;2023-07-31T03:57:53;96998.22;;;15.32;70.10
76611;BME280;65503;48.534;9.062;2023-07-31T04:00:20;96995.84;;;15.30;70.32
76611;BME280;65503;48.534;9.062;2023-07-31T04:02:48;96995.84;;;15.30;70.22
76611;BME280;65503;48.534;9.062;2023-07-31T04:05:15;96991.34;;;15.31;70.28
76611;BME280;65503;48.534;9.062;2023-07-31T04:07:41;96995.63;;;15.37;70.47
76611;BME280;65503;48.534;9.062;2023-07-31T04:10:08;96990.59;;;15.41;70.49
76611;BME280;65503;48.534;9.062;2023-07-31T04:12:38;96996.16;;;15.44;70.08
76611;BME280;65503;48.534;9.062;2023-07-31T04:15:06;96990.41;;;15.52;70.36
76611;BME280;65503;48.534;9.062;2023-07-31T04:17:32;96984.56;;;15.55;70.14
76611;BME280;65503;48.534;9.062;2023-07-31T04:19:59;96989.91;;;15.60;69.99
76611;BME280;65503;48.534;9.062;2023-07-31T04:22:26;96985.44;;;15.71;69.92
76611;BME280;65503;48.534;9.062;2023-07-31T04:24:52;96977.19;;;15.73;69.31
76611;BME280;65503;48.534;9.062;2023-07-31T04:27:19;96984.63;;;15.76;68.60
76611;BME280;65503;48.534;9.062;2023-07-31T04:29:45;96980.66;;;15.78;68.30
76611;BME280;65503;48.534;9.062;2023-07-31T04:32:13;96967.41;;;15.83;68.77
76611;BME280;65503;48.534;9.062;2023-07-31T04:34:43;96972.19;;;15.86;68.60
76611;BME280;65503;48.534;9.062;2023-07-31T04:37:10;96974.03;;;15.91;68.05
76611;BME280;65503;48.534;9.062;2023-07-31T04:39:36;96967.69;;;15.97;67.29
76611;BME280;65503;48.534;9.062;2023-07-31T04:42:03;96975.16;;;16.05;67.75
76611;BME280;65503;48.534;9.062;2023-07-31T04:44:29;96985.78;;;16.15;67.98
76611;BME280;65503;48.534;9.062;2023-07-31T04:46:56;96978.84;;;16.24;67.92
76611;BME280;65503;48.534;9.062;2023-07-31T04:49:23;96978.09;;;16.34;67.61
76611;BME280;65503;48.534;9.062;2023-07-31T04:51:50;96969.31;;;16.38;67.42
76611;BME280;65503;48.534;9.062;2023-07-31T04:54:16;96976.47;;;16.38;66.98
76611;BME280;65503;48.534;9.062;2023-07-31T04:56:43;96976.22;;;16.39;67.02
76611;BME280;65503;48.534;9.062;2023-07-31T04:59:09;96975.16;;;16.45;67.45
76611;BME280;65503;48.534;9.062;2023-07-31T05:01:36;96972.50;;;16.50;66.95
76611;BME280;65503;48.534;9.062;2023-07-31T05:04:03;96975.97;;;16.46;66.78
76611;BME280;65503;48.534;9.062;2023-07-31T05:06:30;96977.81;;;16.50;67.02
76611;BME280;65503;48.534;9.062;2023-07-31T05:08:56;96975.16;;;16.56;67.01
76611;BME280;65503;48.534;9.062;2023-07-31T05:11:23;96983.94;;;16.66;67.00
76611;BME280;65503;48.534;9.062;2023-07-31T05:13:49;96986.84;;;16.80;66.49
76611;BME280;65503;48.534;9.062;2023-07-31T05:16:16;96985.75;;;16.96;66.10
76611;BME280;65503;48.534;9.062;2023-07-31T05:18:42;96988.13;;;17.08;65.67
76611;BME280;65503;48.534;9.062;2023-07-31T05:21:09;96985.66;;;17.26;64.93
76611;BME280;65503;48.534;9.062;2023-07-31T05:23:36;96980.22;;;17.57;64.03
76611;BME280;65503;48.534;9.062;2023-07-31T05:26:06;96985.91;;;17.94;62.81
76611;BME280;65503;48.534;9.062;2023-07-31T05:28:34;96986.19;;;18.32;62.39
76611;BME280;65503;48.534;9.062;2023-07-31T05:31:05;96979.44;;;18.78;61.02
76611;BME280;65503;48.534;9.062;2023-07-31T05:33:31;96991.22;;;19.25;59.71
76611;BME280;65503;48.534;9.062;2023-07-31T05:35:58;97000.34;;;19.66;58.52
76611;BME280;65503;48.534;9.062;2023-07-31T05:38:24;96996.34;;;20.25;56.09
76611;BME280;65503;48.534;9.062;2023-07-31T05:40:51;96985.78;;;20.52;55.92
76611;BME280;65503;48.534;9.062;2023-07-31T05:43:17;96986.03;;;20.70;56.09
76611;BME280;65503;48.534;9.062;2023-07-31T05:45:44;96987.59;;;20.71;54.40
76611;BME280;65503;48.534;9.062;2023-07-31T05:48:11;96981.72;;;21.01;54.41
76611;BME280;65503;48.534;9.062;2023-07-31T05:50:37;96992.78;;;21.27;53.00
76611;BME280;65503;48.534;9.062;2023-07-31T05:53:06;96987.50;;;21.63;52.16
76611;BME280;65503;48.534;9.062;2023-07-31T05:55:34;96998.63;;;21.70;51.71
76611;BME280;65503;48.534;9.062;2023-07-31T05:58:01;96992.66;;;21.59;51.79
76611;BME280;65503;48.534;9.062;2023-07-31T06:00:28;96987.03;;;21.33;52.18
76611;BME280;65503;48.534;9.062;2023-07-31T06:02:54;96979.19;;;21.23;52.90
76611;BME280;65503;48.534;9.062;2023-07-31T06:05:21;96978.06;;;21.11;52.75
76611;BME280;65503;48.534;9.062;2023-07-31T06:07:48;96969.09;;;20.74;52.83
76611;BME280;65503;48.534;9.062;2023-07-31T06:10:14;96980.50;;;20.47;54.80
76611;BME280;65503;48.534;9.062;2023-07-31T06:12:41;96976.56;;;20.07;55.67
76611;BME280;65503;48.534;9.062;2023-07-31T06:15:08;96979.16;;;19.75;57.47
76611;BME280;65503;48.534;9.062;2023-07-31T06:17:34;96978.97;;;19.42;58.91
76611;BME280;65503;48.534;9.062;2023-07-31T06:20:01;96979.00;;;19.19;59.40
76611;BME280;65503;48.534;9.062;2023-07-31T06:22:29;96974.81;;;19.13;60.77
76611;BME280;65503;48.534;9.062;2023-07-31T06:24:56;96972.19;;;19.08;59.62
76611;BME280;65503;48.534;9.062;2023-07-31T06:27:22;96969.00;;;19.06;59.83
76611;BME280;65503;48.534;9.062;2023-07-31T06:29:49;96974.34;;;19.29;60.10
76611;BME280;65503;48.534;9.062;2023-07-31T06:32:15;96972.31;;;19.45;58.06
76611;BME280;65503;48.534;9.062;2023-07-31T06:34:42;96965.66;;;20.04;57.66
76611;BME280;65503;48.534;9.062;2023-07-31T06:37:08;96964.19;;;20.62;55.13
76611;BME280;65503;48.534;9.062;2023-07-31T06:39:35;96979.59;;;21.58;52.50
76611;BME280;65503;48.534;9.062;2023-07-31T06:42:02;96968.81;;;22.88;49.68
76611;BME280;65503;48.534;9.062;2023-07-31T06:44:28;96978.72;;;23.49;46.17
76611;BME280;65503;48.534;9.062;2023-07-31T06:46:55;96968.94;;;23.53;47.15
76611;BME280;65503;48.534;9.062;2023-07-31T06:49:21;96968.47;;;23.12;45.20
76611;BME280;65503;48.534;9.062;2023-07-31T06:51:48;96963.09;;;23.12;45.63
76611;BME280;65503;48.534;9.062;2023-07-31T06:54:15;96962.81;;;22.91;44.83
76611;BME280;65503;48.534;9.062;2023-07-31T06:56:41;96963.75;;;22.64;46.47
76611;BME280;65503;48.534;9.062;2023-07-31T06:59:08;96977.34;;;22.45;46.19
76611;BME280;65503;48.534;9.062;2023-07-31T07:01:35;96968.75;;;22.12;46.18
76611;BME280;65503;48.534;9.062;2023-07-31T07:04:02;96973.53;;;22.15;46.69
76611;BME280;65503;48.534;9.062;2023-07-31T07:06:28;96970.75;;;21.93;46.58
76611;BME280;65503;48.534;9.062;2023-07-31T07:08:54;96976.19;;;21.66;47.37
76611;BME280;65503;48.534;9.062;2023-07-31T07:11:21;96973.44;;;21.43;48.60
76611;BME280;65503;48.534;9.062;2023-07-31T07:13:47;96975.63;;;21.41;48.70
76611;BME280;65503;48.534;9.062;2023-07-31T07:16:14;96977.59;;;21.50;49.24
76611;BME280;65503;48.534;9.062;2023-07-31T07:18:41;96977.38;;;21.73;48.95
76611;BME280;65503;48.534;9.062;2023-07-31T07:21:27;96979.91;;;21.92;47.68
76611;BME280;65503;48.534;9.062;2023-07-31T07:23:54;96982.09;;;22.04;47.22
76611;BME280;65503;48.534;9.062;2023-07-31T07:26:20;96967.31;;;22.29;47.04
76611;BME280;65503;48.534;9.062;2023-07-31T07:28:47;96962.97;;;22.41;46.28
76611;BME280;65503;48.534;9.062;2023-07-31T07:31:13;96961.69;;;22.39;46.02
76611;BME280;65503;48.534;9.062;2023-07-31T07:33:40;96966.47;;;22.42;46.09
76611;BME280;65503;48.534;9.062;2023-07-31T07:36:06;96965.81;;;22.00;46.90
76611;BME280;65503;48.534;9.062;2023-07-31T07:38:36;96959.06;;;21.89;47.74
76611;BME280;65503;48.534;9.062;2023-07-31T07:41:03;96955.47;;;22.07;47.55
76611;BME280;65503;48.534;9.062;2023-07-31T07:43:30;96962.81;;;22.15;47.83
76611;BME280;65503;48.534;9.062;2023-07-31T07:45:56;96973.28;;;22.25;46.95
76611;BME280;65503;48.534;9.062;2023-07-31T07:48:23;96961.94;;;22.29;46.70
76611;BME280;65503;48.534;9.062;2023-07-31T07:50:51;96955.56;;;22.69;45.58
76611;BME280;65503;48.534;9.062;2023-07-31T07:53:18;96957.75;;;23.77;44.92
76611;BME280;65503;48.534;9.062;2023-07-31T07:55:44;96957.63;;;24.59;41.15
76611;BME280;65503;48.534;9.062;2023-07-31T07:58:11;96961.78;;;25.03;38.38
76611;BME280;65503;48.534;9.062;2023-07-31T08:00:38;96962.94;;;25.32;39.53
76611;BME280;65503;48.534;9.062;2023-07-31T08:03:04;96950.94;;;25.59;38.88
76611;BME280;65503;48.534;9.062;2023-07-31T08:05:31;96944.25;;;26.06;37.71
76611;BME280;65503;48.534;9.062;2023-07-31T08:08:00;96948.59;;;26.40;36.44
76611;BME280;65503;48.534;9.062;2023-07-31T08:10:27;96943.06;;;26.69;34.99
76611;BME280;65503;48.534;9.062;2023-07-31T08:12:53;96942.41;;;26.40;35.24
76611;BME280;65503;48.534;9.062;2023-07-31T08:15:20;96939.78;;;26.10;34.49
76611;BME280;65503;48.534;9.062;2023-07-31T08:17:46;96943.47;;;26.26;35.43
76611;BME280;65503;48.534;9.062;2023-07-31T08:20:13;96937.91;;;26.44;33.50
76611;BME280;65503;48.534;9.062;2023-07-31T08:22:41;96941.81;;;26.67;35.24
76611;BME280;65503;48.534;9.062;2023-07-31T08:25:07;96931.88;;;26.92;34.14
76611;BME280;65503;48.534;9.062;2023-07-31T08:27:34;96931.28;;;26.86;34.05
76611;BME280;65503;48.534;9.062;2023-07-31T08:30:00;96924.44;;;26.89;34.81
76611;BME280;65503;48.534;9.062;2023-07-31T08:32:27;96922.56;;;27.26;32.78
76611;BME280;65503;48.534;9.062;2023-07-31T08:34:53;96915.78;;;26.95;32.95
76611;BME280;65503;48.534;9.062;2023-07-31T08:37:20;96922.47;;;26.77;33.52
76611;BME280;65503;48.534;9.062;2023-07-31T08:39:47;96934.19;;;26.69;33.39
76611;BME280;65503;48.534;9.062;2023-07-31T08:42:13;96912.81;;;26.76;34.23
76611;BME280;65503;48.534;9.062;2023-07-31T08:44:40;96918.50;;;26.95;33.43
76611;BME280;65503;48.534;9.062;2023-07-31T08:47:07;96917.44;;;26.30;34.15
76611;BME280;65503;48.534;9.062;2023-07-31T08:49:34;96914.78;;;26.01;34.80
76611;BME280;65503;48.534;9.062;2023-07-31T08:52:01;96924.53;;;25.73;35.69
76611;BME280;65503;48.534;9.062;2023-07-31T08:54:28;96919.50;;;26.04;35.81
76611;BME280;65503;48.534;9.062;2023-07-31T08:56:57;96917.47;;;26.55;35.43
76611;BME280;65503;48.534;9.062;2023-07-31T08:59:29;96903.06;;;26.51;35.13
76611;BME280;65503;48.534;9.062;2023-07-31T09:02:00;96907.81;;;26.54;34.18
76611;BME280;65503;48.534;9.062;2023-07-31T09:04:30;96922.69;;;26.06;35.54
76611;BME280;65503;48.534;9.062;2023-07-31T09:07:00;96926.81;;;25.33;36.44
76611;BME280;65503;48.534;9.062;2023-07-31T09:09:27;96906.88;;;24.79;37.29
76611;BME280;65503;48.534;9.062;2023-07-31T09:11:54;96901.75;;;25.03;37.55
76611;BME280;65503;48.534;9.062;2023-07-31T09:14:22;96894.78;;;25.61;37.12
76611;BME280;65503;48.534;9.062;2023-07-31T09:16:55;96898.84;;;26.29;35.01
76611;BME280;65503;48.534;9.062;2023-07-31T09:19:26;96898.97;;;26.32;35.35
76611;BME280;65503;48.534;9.062;2023-07-31T09:21:53;96895.28;;;26.16;35.98
76611;BME280;65503;48.534;9.062;2023-07-31T09:24:31;96897.38;;;26.31;36.06
76611;BME280;65503;48.534;9.062;2023-07-31T09:26:59;96885.91;;;26.67;36.03
76611;BME280;65503;48.534;9.062;2023-07-31T09:29:27;96887.59;;;26.60;35.08
76611;BME280;65503;48.534;9.062;2023-07-31T09:31:55;96889.63;;;26.09;36.08
76611;BME280;65503;48.534;9.062;2023-07-31T09:34:29;96887.50;;;25.52;36.99
76611;BME280;65503;48.534;9.062;2023-07-31T09:37:02;96894.28;;;25.08;38.15
76611;BME280;65503;48.534;9.062;2023-07-31T09:39:29;96884.84;;;24.94;39.44
76611;BME280;65503;48.534;9.062;2023-07-31T09:41:56;96876.88;;;24.59;38.39
76611;BME280;65503;48.534;9.062;2023-07-31T09:44:41;96875.38;;;24.07;39.08
76611;BME280;65503;48.534;9.062;2023-07-31T09:47:22;96862.69;;;24.16;39.92
76611;BME280;65503;48.534;9.062;2023-07-31T09:49:50;96850.69;;;24.22;40.06
76611;BME280;65503;48.534;9.062;2023-07-31T09:52:17;96853.81;;;24.41;38.35
76611;BME280;65503;48.534;9.062;2023-07-31T09:54:43;96851.63;;;24.35;38.35
76611;BME280;65503;48.534;9.062;2023-07-31T09:57:11;96840.91;;;24.64;39.39
76611;BME280;65503;48.534;9.062;2023-07-31T09:59:38;96838.31;;;25.14;37.71
76611;BME280;65503;48.534;9.062;2023-07-31T10:02:09;96837.97;;;25.66;36.13
76611;BME280;65503;48.534;9.062;2023-07-31T10:04:42;96831.59;;;25.91;36.39
76611;BME280;65503;48.534;9.062;2023-07-31T10:07:12;96825.88;;;25.51;36.18
76611;BME280;65503;48.534;9.062;2023-07-31T10:09:40;96830.88;;;25.82;36.85
76611;BME280;65503;48.534;9.062;2023-07-31T10:12:07;96822.75;;;26.36;35.98
76611;BME280;65503;48.534;9.062;2023-07-31T10:14:36;96816.81;;;26.66;35.13
76611;BME280;65503;48.534;9.062;2023-07-31T10:17:03;96813.03;;;26.92;34.03
76611;BME280;65503;48.534;9.062;2023-07-31T10:19:31;96804.22;;;26.58;33.86
76611;BME280;65503;48.534;9.062;2023-07-31T10:22:02;96807.16;;;26.53;35.86
76611;BME280;65503;48.534;9.062;2023-07-31T10:24:29;96796.19;;;26.25;35.54
76611;BME280;65503;48.534;9.062;2023-07-31T10:26:58;96793.84;;;26.24;35.50
76611;BME280;65503;48.534;9.062;2023-07-31T10:29:29;96794.53;;;26.00;35.17
76611;BME280;65503;48.534;9.062;2023-07-31T10:31:57;96792.94;;;26.44;34.94
76611;BME280;65503;48.534;9.062;2023-07-31T10:34:24;96793.91;;;25.82;35.19
76611;BME280;65503;48.534;9.062;2023-07-31T10:40:06;96800.03;;;26.49;35.33
76611;BME280;65503;48.534;9.062;2023-07-31T10:42:35;96785.09;;;25.52;36.07
76611;BME280;65503;48.534;9.062;2023-07-31T10:45:07;96790.06;;;25.00;37.67
76611;BME280;65503;48.534;9.062;2023-07-31T10:47:44;96785.38;;;25.39;37.31
76611;BME280;65503;48.534;9.062;2023-07-31T10:50:19;96784.28;;;25.61;36.90
76611;BME280;65503;48.534;9.062;2023-07-31T10:53:04;96785.31;;;26.01;36.61
76611;BME280;65503;48.534;9.062;2023-07-31T10:55:39;96786.31;;;26.29;35.80
76611;BME280;65503;48.534;9.062;2023-07-31T10:58:07;96777.09;;;26.30;35.56
76611;BME280;65503;48.534;9.062;2023-07-31T11:00:37;96774.75;;;26.53;34.39
76611;BME280;65503;48.534;9.062;2023-07-31T11:08:15;96766.31;;;26.43;36.20
76611;BME280;65503;48.534;9.062;2023-07-31T11:10:42;96758.06;;;27.00;35.33
76611;BME280;65503;48.534;9.062;2023-07-31T11:13:10;96764.31;;;26.88;34.52
76611;BME280;65503;48.534;9.062;2023-07-31T11:15:36;96769.25;;;26.98;33.72
76611;BME280;65503;48.534;9.062;2023-07-31T11:18:03;96756.34;;;27.32;34.22
76611;BME280;65503;48.534;9.062;2023-07-31T11:20:30;96750.16;;;27.59;33.50
76611;BME280;65503;48.534;9.062;2023-07-31T11:23:02;96755.28;;;28.20;32.94
76611;BME280;65503;48.534;9.062;2023-07-31T11:25:32;96754.63;;;28.11;31.65
76611;BME280;65503;48.534;9.062;2023-07-31T11:28:03;96756.03;;;28.05;31.67
76611;BME280;65503;48.534;9.062;2023-07-31T11:30:30;96756.84;;;27.77;32.09
76611;BME280;65503;48.534;9.062;2023-07-31T11:32:57;96756.53;;;27.94;32.26
76611;BME280;65503;48.534;9.062;2023-07-31T11:35:23;96762.94;;;27.74;32.09
76611;BME280;65503;48.534;9.062;2023-07-31T11:37:50;96757.53;;;26.94;33.82
76611;BME280;65503;48.534;9.062;2023-07-31T11:40:16;96763.13;;;26.77;34.23
76611;BME280;65503;48.534;9.062;2023-07-31T11:42:44;96755.59;;;26.34;34.36
76611;BME280;65503;48.534;9.062;2023-07-31T11:45:11;96756.16;;;26.27;35.45
76611;BME280;65503;48.534;9.062;2023-07-31T11:47:38;96749.59;;;26.16;35.08
76611;BME280;65503;48.534;9.062;2023-07-31T11:50:05;96746.66;;;25.97;35.71
76611;BME280;65503;48.534;9.062;2023-07-31T11:52:38;96747.34;;;26.18;35.94
76611;BME280;65503;48.534;9.062;2023-07-31T11:55:08;96744.47;;;26.23;35.12
76611;BME280;65503;48.534;9.062;2023-07-31T11:57:38;96744.88;;;26.13;35.19
76611;BME280;65503;48.534;9.062;2023-07-31T12:00:07;96736.97;;;25.96;35.67
76611;BME280;65503;48.534;9.062;2023-07-31T12:02:35;96731.56;;;25.84;37.42
76611;BME280;65503;48.534;9.062;2023-07-31T12:05:01;96727.75;;;25.85;37.75
76611;BME280;65503;48.534;9.062;2023-07-31T12:07:42;96725.09;;;25.43;38.51
76611;BME280;65503;48.534;9.062;2023-07-31T12:10:09;96728.56;;;25.11;40.39
76611;BME280;65503;48.534;9.062;2023-07-31T12:12:35;96719.81;;;24.85;40.28
76611;BME280;65503;48.534;9.062;2023-07-31T12:15:02;96725.91;;;24.73;40.70
76611;BME280;65503;48.534;9.062;2023-07-31T12:17:28;96727.19;;;24.46;42.79
76611;BME280;65503;48.534;9.062;2023-07-31T12:19:55;96714.72;;;24.33;46.38
76611;BME280;65503;48.534;9.062;2023-07-31T12:22:23;96704.16;;;24.28;45.81
76611;BME280;65503;48.534;9.062;2023-07-31T12:24:54;96703.25;;;24.24;43.81
76611;BME280;65503;48.534;9.062;2023-07-31T12:27:20;96698.66;;;24.24;44.94
76611;BME280;65503;48.534;9.062;2023-07-31T12:29:48;96685.94;;;24.34;44.51
76611;BME280;65503;48.534;9.062;2023-07-31T12:32:20;96687.31;;;24.40;43.35
76611;BME280;65503;48.534;9.062;2023-07-31T12:34:47;96681.06;;;24.56;42.09
76611;BME280;65503;48.534;9.062;2023-07-31T12:37:13;96679.00;;;24.83;42.28
76611;BME280;65503;48.534;9.062;2023-07-31T12:39:40;96674.72;;;25.23;40.46
76611;BME280;65503;48.534;9.062;2023-07-31T12:42:06;96677.13;;;25.70;41.13
76611;BME280;65503;48.534;9.062;2023-07-31T12:44:33;96680.69;;;26.07;38.14
76611;BME280;65503;48.534;9.062;2023-07-31T12:46:59;96675.75;;;26.45;38.76
76611;BME280;65503;48.534;9.062;2023-07-31T12:49:26;96684.06;;;26.77;38.06
76611;BME280;65503;48.534;9.062;2023-07-31T12:51:52;96674.13;;;26.81;37.30
76611;BME280;65503;48.534;9.062;2023-07-31T12:54:20;96665.41;;;27.11;37.63
76611;BME280;65503;48.534;9.062;2023-07-31T12:56:46;96644.56;;;27.12;36.67
76611;BME280;65503;48.534;9.062;2023-07-31T12:59:13;96648.63;;;26.66;37.08
76611;BME280;65503;48.534;9.062;2023-07-31T13:01:40;96642.34;;;26.62;37.96
76611;BME280;65503;48.534;9.062;2023-07-31T13:04:07;96639.41;;;26.67;37.88
76611;BME280;65503;48.534;9.062;2023-07-31T13:06:34;96633.25;;;26.94;38.18
76611;BME280;65503;48.534;9.062;2023-07-31T13:09:01;96623.75;;;27.12;35.88
76611;BME280;65503;48.534;9.062;2023-07-31T13:11:28;96618.44;;;26.88;36.33
76611;BME280;65503;48.534;9.062;2023-07-31T13:13:54;96618.16;;;27.05;37.53
76611;BME280;65503;48.534;9.062;2023-07-31T13:16:21;96623.31;;;26.70;35.34